Time;durP1;ratioP1;P1;durP2;ratioP2;P2;SDS_P1;SDS_P2;PMS_P1;PMS_P2;Temp;Humidity;BMP_temperature;BMP_pressure;BME280_temperature;BME280_humidity;BME280_pressure;Samples;Min_cycle;Max_cycle;Signal;HPM_P1;HPM_P2
2021/12/15 00:02:31;;;;;;;39.27;16.07;;;;;;;0.83;88.50;98575.73;1681034;84;21360;-78
2021/12/15 00:05:05;;;;;;;38.90;15.80;;;;;;;0.82;88.42;98579.20;1680954;85;21467;-78
2021/12/15 00:07:37;;;;;;;39.50;15.83;;;;;;;0.82;88.62;98569.20;1680316;84;20993;-78
2021/12/15 00:10:06;;;;;;;41.77;16.07;;;;;;;0.81;88.46;98568.73;1681090;84;20989;-78
2021/12/15 00:12:38;;;;;;;42.95;16.48;;;;;;;0.85;88.41;98577.07;1679868;84;21411;-78
2021/12/15 00:15:09;;;;;;;41.25;16.02;;;;;;;0.87;88.28;98571.03;1672286;84;21065;-78
2021/12/15 00:17:38;;;;;;;37.93;14.68;;;;;;;0.89;88.41;98563.23;1686796;83;21063;-78
2021/12/15 00:20:09;;;;;;;33.55;14.80;;;;;;;0.91;88.30;98574.56;1681137;84;21534;-78
2021/12/15 00:22:38;;;;;;;33.85;15.10;;;;;;;0.92;88.22;98571.99;1681442;84;21514;-78
2021/12/15 00:25:08;;;;;;;31.93;13.83;;;;;;;0.92;88.19;98566.77;1682579;84;21020;-78
2021/12/15 00:27:36;;;;;;;33.48;14.30;;;;;;;0.96;88.13;98572.06;1680468;84;21009;-78
2021/12/15 00:30:06;;;;;;;30.65;13.58;;;;;;;0.97;88.01;98576.42;1679623;85;21065;-78
2021/12/15 00:32:33;;;;;;;35.63;15.55;;;;;;;0.98;88.01;98575.56;1679132;85;21451;-78
2021/12/15 00:35:00;;;;;;;32.78;14.73;;;;;;;0.98;88.28;98575.16;1681254;84;21123;-78
2021/12/15 00:37:26;;;;;;;32.60;13.83;;;;;;;1.00;88.01;98569.52;1682572;85;21016;-78
2021/12/15 00:39:54;;;;;;;29.52;13.35;;;;;;;1.01;88.00;98575.22;1681565;85;21427;-78
2021/12/15 00:42:21;;;;;;;33.90;14.00;;;;;;;1.04;88.08;98571.78;1680056;84;21104;-78
2021/12/15 00:44:47;;;;;;;30.77;13.15;;;;;;;1.04;87.72;98571.34;1680903;84;20985;-78
2021/12/15 00:47:14;;;;;;;32.70;13.68;;;;;;;1.01;87.34;98577.83;1682754;85;20969;-78
2021/12/15 00:49:41;;;;;;;33.60;13.22;;;;;;;0.98;87.27;98579.06;1682783;85;21398;-78
2021/12/15 00:52:08;;;;;;;33.35;13.65;;;;;;;1.00;87.34;98589.54;1682383;85;21044;-78
2021/12/15 00:54:37;;;;;;;38.35;13.50;;;;;;;0.99;87.30;98587.34;1681613;85;21009;-78
2021/12/15 00:57:05;;;;;;;35.85;14.60;;;;;;;1.00;87.35;98584.32;1679118;84;21084;-78
2021/12/15 00:59:32;;;;;;;29.42;13.08;;;;;;;1.00;87.60;98579.96;1678943;85;20990;-78
2021/12/15 01:02:00;;;;;;;35.08;14.95;;;;;;;1.01;87.55;98582.16;1678966;85;21033;-78
2021/12/15 01:04:30;;;;;;;35.40;13.60;;;;;;;1.01;87.64;98580.44;1679643;85;21056;-78
2021/12/15 01:07:02;;;;;;;34.65;13.72;;;;;;;1.00;87.42;98583.02;1682310;85;21477;-78
2021/12/15 01:09:36;;;;;;;36.80;15.40;;;;;;;1.02;87.47;98574.77;1669954;83;21426;-78
2021/12/15 01:12:13;;;;;;;35.33;13.93;;;;;;;1.05;87.81;98569.17;1703030;84;21464;-78
2021/12/15 01:20:22;;;;;;;38.10;16.00;;;;;;;1.04;87.40;98579.61;1674589;86;21015;-78
2021/12/15 01:22:52;;;;;;;36.40;14.90;;;;;;;0.99;87.38;98579.52;1662286;86;20996;-78
2021/12/15 01:25:33;;;;;;;43.45;16.25;;;;;;;0.96;87.56;98574.67;1674500;85;20981;-78
2021/12/15 01:28:00;;;;;;;39.65;14.78;;;;;;;0.93;87.78;98570.27;1668934;85;21020;-77
2021/12/15 01:30:32;;;;;;;42.30;15.55;;;;;;;0.88;87.79;98569.31;1654919;87;21024;-78
2021/12/15 01:33:01;;;;;;;38.75;16.07;;;;;;;0.85;87.93;98571.85;1655044;87;21012;-78
2021/12/15 01:35:29;;;;;;;36.60;15.28;;;;;;;0.86;87.61;98566.66;1672122;85;21493;-78
2021/12/15 01:37:56;;;;;;;36.50;14.05;;;;;;;0.80;88.11;98556.12;1682412;85;21060;-78
2021/12/15 01:40:34;;;;;;;37.58;14.60;;;;;;;0.78;87.93;98553.89;1682412;85;20985;-78
2021/12/15 01:42:56;;;;;;;35.55;14.43;;;;;;;0.77;87.81;98566.48;1681910;85;21001;-77
2021/12/15 01:48:14;;;;;;;34.30;15.45;;;;;;;0.70;88.08;98573.77;1682336;85;21068;-78
2021/12/15 01:50:43;;;;;;;37.05;15.98;;;;;;;0.74;87.71;98577.75;1682332;85;21387;-78
2021/12/15 01:53:11;;;;;;;35.13;14.33;;;;;;;0.71;88.19;98579.42;1681044;85;21047;-78
2021/12/15 01:55:37;;;;;;;38.88;14.28;;;;;;;0.69;87.84;98576.78;1680863;85;21048;-77
2021/12/15 01:58:05;;;;;;;36.08;14.10;;;;;;;0.72;87.88;98578.57;1678850;84;21013;-78
2021/12/15 02:00:37;;;;;;;38.55;15.43;;;;;;;0.70;88.02;98577.67;1679122;85;21010;-77
2021/12/15 02:03:05;;;;;;;38.65;14.58;;;;;;;0.72;87.93;98570.33;1679999;84;20989;-77
2021/12/15 02:05:35;;;;;;;37.40;16.10;;;;;;;0.77;87.85;98576.52;1682500;85;21072;-77
2021/12/15 02:08:05;;;;;;;36.58;14.78;;;;;;;0.79;87.74;98573.50;1682579;85;21398;-77
2021/12/15 02:10:36;;;;;;;36.25;14.60;;;;;;;0.77;87.65;98573.91;1682432;85;22213;-78
2021/12/15 02:13:07;;;;;;;36.30;14.47;;;;;;;0.79;87.67;98570.89;1681635;85;21478;-78
2021/12/15 02:15:42;;;;;;;39.05;14.47;;;;;;;0.80;87.59;98571.78;1678848;85;21014;-77
2021/12/15 02:18:13;;;;;;;33.58;14.18;;;;;;;0.81;87.71;98563.09;1666549;85;21021;-78
2021/12/15 02:20:45;;;;;;;31.48;12.90;;;;;;;0.79;87.37;98570.03;1673683;85;20969;-78
2021/12/15 02:23:16;;;;;;;35.48;15.63;;;;;;;0.81;87.48;98573.94;1689654;84;21462;-78
2021/12/15 02:25:45;;;;;;;35.45;14.20;;;;;;;0.85;87.49;98573.16;1711112;84;21044;-77
2021/12/15 02:28:12;;;;;;;32.63;13.93;;;;;;;0.89;87.49;98577.17;1691350;84;20997;-78
2021/12/15 02:30:51;;;;;;;35.98;14.18;;;;;;;0.91;87.60;98578.07;1678324;85;21434;-77
2021/12/15 02:38:41;;;;;;;37.55;15.32;;;;;;;1.06;87.93;98576.59;1655033;85;21081;-77
2021/12/15 02:41:22;;;;;;;38.80;16.57;;;;;;;1.09;87.67;98575.77;1679204;84;21555;-77
2021/12/15 02:43:53;;;;;;;34.53;14.75;;;;;;;1.12;87.69;98571.92;1678932;85;21044;-77
2021/12/15 02:46:21;;;;;;;32.67;13.28;;;;;;;1.08;87.49;98559.66;1679160;85;21061;-78
2021/12/15 02:48:49;;;;;;;33.85;13.62;;;;;;;1.09;87.16;98562.72;1680347;85;21096;-78
2021/12/15 02:51:18;;;;;;;28.47;12.93;;;;;;;1.09;87.22;98555.78;1682164;84;20945;-77
2021/12/15 02:53:44;;;;;;;30.37;12.78;;;;;;;1.08;87.16;98560.52;1682506;85;21052;-77
2021/12/15 02:56:12;;;;;;;29.70;14.45;;;;;;;1.09;87.07;98566.22;1682588;85;21012;-77
2021/12/15 02:58:47;;;;;;;31.48;13.95;;;;;;;1.10;87.16;98565.36;1682263;84;21059;-77
2021/12/15 03:01:17;;;;;;;35.50;14.58;;;;;;;1.13;87.21;98562.78;1682401;85;21481;-77
2021/12/15 03:04:10;;;;;;;39.80;15.95;;;;;;;1.13;87.25;98563.23;1682420;85;21065;-77
2021/12/15 03:06:28;;;;;;;38.55;14.45;;;;;;;1.15;86.93;98561.09;1682547;85;21028;-77
2021/12/15 03:09:06;;;;;;;37.42;15.35;;;;;;;1.16;87.20;98569.82;1682554;85;21088;-77
2021/12/15 03:16:50;;;;;;;30.17;12.93;;;;;;;1.19;87.16;98571.16;1610475;88;21058;-77
2021/12/15 03:19:18;;;;;;;32.03;14.47;;;;;;;1.12;86.30;98571.47;1654104;85;21004;-77
2021/12/15 03:21:46;;;;;;;30.37;13.75;;;;;;;1.10;86.09;98565.77;1680899;85;21048;-77
2021/12/15 03:24:18;;;;;;;27.13;12.88;;;;;;;1.12;86.57;98566.25;1682510;85;21004;-77
2021/12/15 03:26:59;;;;;;;30.32;13.35;;;;;;;1.13;86.37;98574.97;1682447;85;21061;-77
2021/12/15 03:35:06;;;;;;;30.35;13.13;;;;;;;1.20;86.56;98571.61;1678853;85;21012;-76
2021/12/15 03:37:32;;;;;;;25.65;12.60;;;;;;;1.22;85.49;98575.55;1678531;85;21087;-76
2021/12/15 03:40:23;;;;;;;26.65;11.45;;;;;;;1.26;86.63;98567.81;1678783;85;21064;-77
2021/12/15 03:43:05;;;;;;;26.00;11.95;;;;;;;1.29;85.88;98566.99;1654969;87;21016;-77
2021/12/15 03:45:39;;;;;;;23.62;10.72;;;;;;;1.29;85.91;98568.30;1655100;87;21008;-76
2021/12/15 03:48:11;;;;;;;22.67;10.90;;;;;;;1.28;86.12;98567.81;1630346;87;21034;-76
2021/12/15 03:50:38;;;;;;;25.85;11.63;;;;;;;1.26;86.17;98566.92;1634669;88;21431;-76
2021/12/15 03:53:06;;;;;;;28.50;12.00;;;;;;;1.22;86.12;98568.61;1679330;85;21009;-77
2021/12/15 03:55:36;;;;;;;29.50;12.55;;;;;;;1.16;85.06;98567.21;1678844;85;21057;-76
2021/12/15 03:58:09;;;;;;;24.10;12.23;;;;;;;1.02;84.63;98569.55;1679265;85;21459;-76
2021/12/15 04:00:39;;;;;;;24.92;11.53;;;;;;;0.95;85.19;98556.81;1684442;85;20998;-77
2021/12/15 04:03:18;;;;;;;26.40;12.07;;;;;;;0.90;85.06;98551.94;1693206;85;21084;-78
2021/12/15 04:05:45;;;;;;;23.52;11.33;;;;;;;0.85;85.22;98549.67;1697251;83;21063;-77
2021/12/15 04:08:12;;;;;;;25.10;12.13;;;;;;;0.77;85.30;98550.42;1697707;84;21024;-78
2021/12/15 04:10:39;;;;;;;24.80;11.28;;;;;;;0.69;85.21;98549.39;1696104;84;21449;-78
2021/12/15 04:13:06;;;;;;;25.37;10.68;;;;;;;0.63;85.38;98546.23;1697792;84;21007;-78
2021/12/15 04:15:42;;;;;;;24.87;11.68;;;;;;;0.57;85.44;98547.83;1697571;84;21019;-78
2021/12/15 04:18:04;;;;;;;23.02;11.78;;;;;;;0.47;85.74;98546.38;1697892;84;21020;-77
2021/12/15 04:20:34;;;;;;;22.82;10.40;;;;;;;0.43;85.84;98537.14;1695159;84;21008;-77
2021/12/15 04:23:04;;;;;;;25.62;11.85;;;;;;;0.37;85.81;98544.41;1694088;85;21021;-77
2021/12/15 04:25:35;;;;;;;24.92;11.40;;;;;;;0.33;85.99;98550.43;1694184;85;21020;-77
2021/12/15 04:28:19;;;;;;;24.27;11.53;;;;;;;0.30;85.76;98545.14;1694124;85;21091;-77
2021/12/15 04:30:51;;;;;;;23.25;11.05;;;;;;;0.24;86.32;98555.01;1704317;83;20993;-77
2021/12/15 04:33:55;;;;;;;24.67;11.88;;;;;;;0.12;86.45;98544.79;1693029;83;21055;-77
2021/12/15 04:36:19;;;;;;;27.32;12.00;;;;;;;0.16;86.20;98556.16;1671672;83;21542;-78
2021/12/15 04:38:46;;;;;;;27.58;12.25;;;;;;;0.10;86.38;98562.13;1682149;84;21062;-78
2021/12/15 04:41:17;;;;;;;24.70;12.50;;;;;;;0.09;86.52;98559.05;1672474;85;21006;-78
2021/12/15 04:43:49;;;;;;;27.58;11.43;;;;;;;0.08;86.45;98569.02;1669596;86;21027;-78
2021/12/15 04:46:14;;;;;;;24.98;11.60;;;;;;;0.05;86.85;98565.48;1669607;86;21027;-78
2021/12/15 04:48:43;;;;;;;22.17;11.22;;;;;;;0.04;86.77;98584.13;1685954;84;21414;-78
2021/12/15 04:51:10;;;;;;;28.35;11.70;;;;;;;-0.03;86.81;98575.30;1697080;84;21390;-78
2021/12/15 04:53:37;;;;;;;20.88;11.00;;;;;;;-0.07;86.88;98583.02;1697871;84;21011;-77
2021/12/15 04:56:06;;;;;;;24.35;10.68;;;;;;;-0.12;87.36;98582.04;1697762;84;21032;-78
2021/12/15 04:58:33;;;;;;;23.52;11.22;;;;;;;-0.13;87.10;98585.05;1691171;84;21084;-78
2021/12/15 05:01:05;;;;;;;27.17;11.83;;;;;;;-0.16;87.38;98594.98;1678840;85;21055;-78
2021/12/15 05:03:32;;;;;;;22.37;10.58;;;;;;;-0.16;87.45;98593.68;1679029;85;21275;-78
2021/12/15 05:05:59;;;;;;;28.23;12.63;;;;;;;-0.10;87.52;98603.38;1673593;85;21005;-78
2021/12/15 05:08:25;;;;;;;24.45;11.08;;;;;;;-0.06;87.42;98600.41;1651602;87;20990;-78
2021/12/15 05:10:55;;;;;;;24.25;11.05;;;;;;;-0.03;87.53;98614.37;1651563;87;21417;-78
2021/12/15 05:13:22;;;;;;;24.20;11.18;;;;;;;-0.02;87.58;98617.47;1651462;86;20986;-78
2021/12/15 05:15:50;;;;;;;26.95;10.93;;;;;;;0.00;87.80;98607.09;1654459;85;21104;-78
2021/12/15 05:18:16;;;;;;;22.07;11.00;;;;;;;0.01;87.72;98606.64;1678807;85;21048;-78
2021/12/15 05:20:48;;;;;;;23.35;10.28;;;;;;;0.05;87.85;98603.27;1679051;85;20981;-78
2021/12/15 05:23:13;;;;;;;22.67;10.65;;;;;;;0.13;88.12;98606.49;1678791;85;21467;-78
2021/12/15 05:25:40;;;;;;;24.15;10.88;;;;;;;0.24;88.28;98612.36;1678054;85;21005;-78
2021/12/15 05:28:07;;;;;;;23.52;11.22;;;;;;;0.31;88.14;98612.08;1651629;86;22134;-78
2021/12/15 05:30:36;;;;;;;28.77;12.33;;;;;;;0.34;88.09;98620.84;1651674;87;20997;-78
2021/12/15 05:33:04;;;;;;;26.73;12.23;;;;;;;0.40;87.82;98617.49;1651756;86;21525;-78
2021/12/15 05:35:33;;;;;;;28.73;12.78;;;;;;;0.40;87.53;98622.70;1652599;86;21029;-78
2021/12/15 05:38:01;;;;;;;27.85;12.98;;;;;;;0.40;87.48;98629.23;1651248;87;21034;-78
2021/12/15 05:40:29;;;;;;;27.13;12.37;;;;;;;0.35;86.79;98626.53;1651790;86;21033;-78
2021/12/15 05:42:57;;;;;;;25.85;12.10;;;;;;;0.33;87.09;98621.69;1651545;87;21036;-78
2021/12/15 05:45:29;;;;;;;24.85;10.48;;;;;;;0.25;85.72;98628.05;1652331;86;21053;-78
2021/12/15 05:47:58;;;;;;;23.18;11.73;;;;;;;0.19;86.14;98625.72;1655357;85;21010;-78
2021/12/15 05:50:28;;;;;;;22.80;12.03;;;;;;;0.11;86.21;98619.03;1679446;85;21396;-78
2021/12/15 05:52:56;;;;;;;22.32;11.43;;;;;;;0.08;86.45;98621.15;1651524;85;21011;-78
2021/12/15 05:55:23;;;;;;;26.35;11.57;;;;;;;0.05;86.62;98625.02;1624902;88;21069;-78
2021/12/15 05:57:50;;;;;;;19.52;10.10;;;;;;;0.05;86.47;98625.02;1656903;85;21053;-78
2021/12/15 06:00:22;;;;;;;20.90;9.98;;;;;;;-0.12;86.59;98619.81;1678992;83;21071;-78
2021/12/15 06:02:50;;;;;;;23.52;11.22;;;;;;;-0.08;86.69;98621.21;1676576;84;21076;-78
2021/12/15 06:05:17;;;;;;;22.50;10.78;;;;;;;-0.04;86.96;98618.28;1655405;86;21386;-78
2021/12/15 06:07:44;;;;;;;24.90;10.28;;;;;;;-0.01;87.19;98620.53;1675526;85;20958;-78
2021/12/15 06:10:18;;;;;;;21.65;10.55;;;;;;;0.03;87.06;98620.17;1679326;85;21009;-78
2021/12/15 06:12:47;;;;;;;22.90;10.43;;;;;;;-0.02;86.82;98608.76;1661017;85;21000;-78
2021/12/15 06:15:22;;;;;;;22.52;10.50;;;;;;;-0.02;86.82;98608.76;1682087;84;21451;-78
2021/12/15 06:17:44;;;;;;;23.02;9.93;;;;;;;0.03;86.92;98614.09;1679199;85;21419;-78
2021/12/15 06:20:11;;;;;;;22.73;10.38;;;;;;;0.06;86.94;98611.13;1679365;85;21029;-78
2021/12/15 06:22:39;;;;;;;22.17;10.53;;;;;;;0.07;87.03;98620.70;1677942;84;21080;-78
2021/12/15 06:25:06;;;;;;;21.35;10.48;;;;;;;0.10;86.91;98627.30;1670238;84;21046;-78
2021/12/15 06:27:35;;;;;;;23.57;10.78;;;;;;;0.15;86.89;98626.08;1683046;85;21430;-78
2021/12/15 06:30:06;;;;;;;24.52;10.45;;;;;;;0.13;86.64;98633.86;1682683;84;21446;-78
2021/12/15 06:32:33;;;;;;;20.17;10.08;;;;;;;0.12;86.80;98639.03;1683030;85;21072;-78
2021/12/15 06:34:59;;;;;;;22.42;10.45;;;;;;;0.13;86.78;98645.59;1681479;84;21515;-78
2021/12/15 06:37:27;;;;;;;23.35;11.18;;;;;;;0.09;86.50;98646.36;1680205;84;20966;-78
2021/12/15 06:39:54;;;;;;;25.25;12.13;;;;;;;0.07;86.57;98651.97;1679189;85;21026;-78
2021/12/15 06:42:21;;;;;;;25.17;11.97;;;;;;;0.07;86.67;98652.39;1679699;84;21411;-78
2021/12/15 06:44:47;;;;;;;23.10;11.03;;;;;;;0.07;86.65;98653.28;1683148;84;21052;-78
2021/12/15 06:57:14;;;;;;;27.10;12.60;;;;;;;0.07;86.75;98655.88;1682776;85;20989;-78
2021/12/15 06:58:17;;;;;;;24.80;12.47;;;;;;;0.15;86.54;98672.11;1682812;83;21040;-78
2021/12/15 07:01:07;;;;;;;25.70;12.25;;;;;;;0.16;86.67;98678.67;1675504;84;21014;-79
2021/12/15 07:03:34;;;;;;;22.55;11.20;;;;;;;0.19;86.70;98669.63;1751038;81;21001;-78
2021/12/15 07:06:00;;;;;;;24.25;11.78;;;;;;;0.23;86.34;98684.50;1771525;80;20936;-78
2021/12/15 07:08:28;;;;;;;25.75;12.05;;;;;;;0.22;86.40;98685.35;1771783;80;21027;-78
2021/12/15 07:10:59;;;;;;;27.15;11.95;;;;;;;0.25;86.24;98695.83;1742767;81;21021;-78
2021/12/15 07:13:26;;;;;;;27.65;12.98;;;;;;;0.24;86.19;98688.86;1747737;82;20967;-78
2021/12/15 07:15:59;;;;;;;28.75;13.05;;;;;;;0.28;86.42;98693.72;1759310;81;21031;-78
2021/12/15 07:18:44;;;;;;;27.87;11.70;;;;;;;0.33;86.20;98691.23;1762121;81;21048;-77
2021/12/15 07:21:16;;;;;;;25.37;11.68;;;;;;;0.34;86.07;98691.23;1761776;81;20997;-76
2021/12/15 07:23:40;;;;;;;24.02;11.85;;;;;;;0.28;84.66;98698.93;1739362;82;20990;-76
2021/12/15 07:26:07;;;;;;;25.27;12.33;;;;;;;0.30;85.21;98697.26;1755784;81;20971;-77
2021/12/15 07:28:33;;;;;;;25.57;11.50;;;;;;;0.34;85.21;98701.67;1757263;81;21476;-77
2021/12/15 07:31:01;;;;;;;25.77;11.00;;;;;;;0.36;85.37;98701.30;1756915;82;21046;-77
2021/12/15 07:33:28;;;;;;;22.95;10.70;;;;;;;0.42;85.58;98697.06;1756826;81;20999;-77
2021/12/15 07:35:55;;;;;;;23.30;11.08;;;;;;;0.55;84.39;98698.22;1744166;81;21013;-77
2021/12/15 07:38:22;;;;;;;25.45;11.53;;;;;;;0.56;84.08;98702.17;1740152;81;21411;-77
2021/12/15 07:40:49;;;;;;;24.05;11.10;;;;;;;0.67;84.75;98706.33;1762565;81;21540;-77
2021/12/15 07:43:25;;;;;;;21.95;11.00;;;;;;;0.81;85.07;98702.70;1762625;81;20993;-77
2021/12/15 07:46:00;;;;;;;22.93;10.80;;;;;;;0.90;83.08;98706.81;1769555;80;20975;-77
2021/12/15 07:48:34;;;;;;;23.42;11.75;;;;;;;0.90;83.15;98712.44;1757359;82;20956;-77
2021/12/15 07:51:04;;;;;;;21.33;10.30;;;;;;;1.04;83.81;98714.05;1755747;82;20992;-77
2021/12/15 07:53:31;;;;;;;22.45;11.18;;;;;;;1.03;81.84;98711.85;1757198;81;20976;-77
2021/12/15 07:55:58;;;;;;;23.10;11.15;;;;;;;1.13;82.05;98719.87;1762670;80;21030;-77
2021/12/15 07:58:27;;;;;;;22.07;10.90;;;;;;;1.22;82.43;98719.17;1738351;81;21119;-77
2021/12/15 08:00:57;;;;;;;23.90;12.03;;;;;;;1.32;80.76;98706.73;1751169;80;20961;-78
2021/12/15 08:03:24;;;;;;;24.20;11.50;;;;;;;1.44;82.70;98716.12;1755399;80;21002;-78
2021/12/15 08:05:52;;;;;;;23.47;10.58;;;;;;;1.41;78.38;98712.59;1748876;82;21426;-77
2021/12/15 08:08:20;;;;;;;24.05;10.65;;;;;;;1.43;79.07;98722.21;1741819;82;21009;-77
2021/12/15 08:10:48;;;;;;;20.15;9.75;;;;;;;1.51;80.73;98730.61;1749020;81;20997;-77
2021/12/15 08:13:15;;;;;;;18.20;9.30;;;;;;;1.47;77.71;98726.17;1749073;82;20985;-77
2021/12/15 08:15:43;;;;;;;20.75;9.55;;;;;;;1.42;78.38;98728.27;1748957;81;21009;-77
2021/12/15 08:18:11;;;;;;;20.88;10.35;;;;;;;1.36;78.76;98731.21;1754826;81;20996;-77
2021/12/15 08:20:38;;;;;;;20.02;9.30;;;;;;;1.37;79.63;98743.41;1759056;81;21461;-77
2021/12/15 08:23:05;;;;;;;21.05;10.03;;;;;;;1.35;78.23;98737.26;1741736;81;21400;-77
2021/12/15 08:25:35;;;;;;;20.50;10.25;;;;;;;1.32;78.86;98745.91;1721698;82;21145;-77
2021/12/15 08:28:03;;;;;;;23.15;10.05;;;;;;;1.34;78.23;98746.84;1726560;83;20961;-77
2021/12/15 08:30:32;;;;;;;20.97;9.38;;;;;;;1.33;78.67;98746.40;1736839;82;20981;-77
2021/12/15 08:33:03;;;;;;;18.73;10.20;;;;;;;1.35;78.09;98752.52;1737820;82;21033;-77
2021/12/15 08:35:41;;;;;;;22.77;10.63;;;;;;;1.14;74.77;98752.95;1739344;82;21444;-77
2021/12/15 08:38:10;;;;;;;21.82;10.15;;;;;;;1.07;77.24;98748.03;1748902;82;21579;-76
2021/12/15 08:40:37;;;;;;;21.57;9.93;;;;;;;1.05;77.71;98754.97;1748997;82;21038;-76
2021/12/15 08:43:07;;;;;;;20.12;9.28;;;;;;;1.05;77.52;98754.52;1748960;82;21009;-78
2021/12/15 08:45:38;;;;;;;19.90;9.55;;;;;;;1.07;78.33;98750.64;1741735;82;21382;-78
2021/12/15 08:48:08;;;;;;;25.80;12.63;;;;;;;1.13;78.88;98748.15;1756377;81;21057;-78
2021/12/15 08:50:40;;;;;;;34.25;16.02;;;;;;;1.18;78.32;98745.23;1737827;82;20990;-78
2021/12/15 08:53:10;;;;;;;21.48;9.73;;;;;;;1.15;77.96;98739.05;1744068;82;21454;-76
2021/12/15 08:55:36;;;;;;;22.87;10.03;;;;;;;1.08;75.13;98739.78;1719079;83;21017;-77
2021/12/15 08:58:05;;;;;;;19.73;9.93;;;;;;;1.04;75.21;98734.94;1719032;83;21013;-77
2021/12/15 09:00:33;;;;;;;25.23;11.80;;;;;;;0.99;75.45;98732.66;1719244;83;21399;-77
2021/12/15 09:03:00;;;;;;;29.35;13.25;;;;;;;1.01;77.16;98733.55;1748974;80;21395;-77
2021/12/15 09:05:27;;;;;;;21.33;10.53;;;;;;;1.06;77.96;98725.39;1751167;80;20986;-76
2021/12/15 09:07:58;;;;;;;20.23;9.60;;;;;;;1.11;77.85;98725.06;1738435;82;21012;-76
2021/12/15 09:10:28;;;;;;;17.15;8.55;;;;;;;1.19;78.15;98719.98;1749207;81;20993;-77
2021/12/15 09:12:56;;;;;;;23.05;10.10;;;;;;;1.04;74.02;98727.97;1749672;82;20960;-78
2021/12/15 09:15:23;;;;;;;19.67;9.63;;;;;;;1.10;76.54;98722.00;1747825;82;21056;-77
2021/12/15 09:17:50;;;;;;;20.55;9.88;;;;;;;1.15;76.61;98717.75;1740399;81;21036;-77
2021/12/15 09:20:22;;;;;;;18.60;9.13;;;;;;;1.24;77.50;98712.27;1757399;81;21019;-76
2021/12/15 09:22:50;;;;;;;23.12;9.05;;;;;;;1.25;76.17;98712.71;1756214;81;21035;-76
2021/12/15 09:25:18;;;;;;;19.27;10.23;;;;;;;1.20;74.84;98708.69;1751534;81;21364;-78
2021/12/15 09:27:47;;;;;;;21.35;9.60;;;;;;;1.23;75.33;98707.86;1733660;81;20949;-78
2021/12/15 09:30:18;;;;;;;19.23;9.68;;;;;;;1.25;76.04;98712.27;1740163;81;21024;-78
2021/12/15 09:32:46;;;;;;;20.27;9.35;;;;;;;1.34;77.08;98711.59;1739091;82;20976;-78
2021/12/15 09:35:16;;;;;;;18.45;9.25;;;;;;;1.44;77.28;98702.17;1738713;82;21019;-78
2021/12/15 09:37:44;;;;;;;20.27;9.78;;;;;;;1.50;76.32;98700.97;1738548;82;21063;-78
2021/12/15 09:40:14;;;;;;;19.65;9.30;;;;;;;1.57;77.40;98696.75;1738223;82;21447;-78
2021/12/15 09:42:41;;;;;;;19.50;9.70;;;;;;;1.63;76.29;98690.34;1747361;82;20961;-78
2021/12/15 09:46:26;;;;;;;;;;;;;;;;;;;;;
2021/12/15 10:04:26;;;;;;;18.80;8.78;;;;;;;2.21;75.58;98677.75;1722511;82;21021;-77
2021/12/15 10:07:14;;;;;;;17.65;8.68;;;;;;;2.33;75.53;98672.27;1718213;83;21038;-77
2021/12/15 10:18:04;;;;;;;18.42;9.03;;;;;;;2.57;72.93;98656.02;1713041;84;20985;-77
2021/12/15 10:20:25;;;;;;;15.70;7.95;;;;;;;2.66;73.64;98658.33;1714446;83;20966;-76
2021/12/15 10:23:00;;;;;;;17.95;9.23;;;;;;;2.73;73.02;98645.75;1721907;82;20997;-76
2021/12/15 10:25:32;;;;;;;19.27;8.20;;;;;;;2.85;73.40;98641.98;1717992;83;20990;-76
2021/12/15 10:28:04;;;;;;;;;;;;;;;2.87;70.63;98640.25;1719675;82;21017;-76
2021/12/15 10:30:45;;;;;;;15.78;7.92;;;;;;;2.86;69.84;98638.95;1719248;83;20104;-76
2021/12/15 10:33:34;;;;;;;17.57;8.13;;;;;;;2.89;70.07;98641.59;1714652;83;21388;-76
2021/12/15 10:36:10;;;;;;;15.75;7.70;;;;;;;2.94;70.86;98637.73;1719873;83;21411;-77
2021/12/15 10:38:48;;;;;;;14.83;7.78;;;;;;;3.07;71.17;98628.27;1708161;83;21467;-77
2021/12/15 10:41:31;;;;;;;18.57;8.70;;;;;;;3.19;69.06;98624.91;1718869;83;20974;-77
2021/12/15 10:44:13;;;;;;;17.92;9.30;;;;;;;3.99;68.76;98633.91;1718387;83;20986;-77
2021/12/15 10:46:59;;;;;;;17.05;9.45;;;;;;;5.06;69.05;98617.79;1702272;83;20934;-77
2021/12/15 10:49:30;;;;;;;18.10;10.48;;;;;;;6.06;66.42;98619.20;1719066;83;21052;-77
2021/12/15 10:52:04;;;;;;;17.05;8.25;;;;;;;7.08;63.23;98615.39;1709483;84;20986;-77
2021/12/15 10:54:33;;;;;;;;;;;;;;;7.95;65.34;98616.96;1725115;83;21026;-71
2021/12/15 10:57:05;;;;;;;12.73;8.15;;;;;;;8.88;59.52;98616.47;1728020;82;20099;-72
2021/12/15 10:59:37;;;;;;;13.03;7.85;;;;;;;9.61;61.10;98616.33;1716386;83;21124;-71
2021/12/15 11:02:11;;;;;;;16.20;9.08;;;;;;;9.87;50.67;98608.84;1707010;84;21053;-70
2021/12/15 11:04:45;;;;;;;17.77;9.48;;;;;;;10.11;51.53;98596.08;1734828;82;21602;-70
2021/12/15 11:07:23;;;;;;;17.37;9.45;;;;;;;10.40;56.30;98607.91;1743038;81;21029;-70
2021/12/15 11:10:01;;;;;;;14.53;8.48;;;;;;;10.73;48.92;98601.56;1712819;84;21014;-70
2021/12/15 11:12:41;;;;;;;16.85;9.88;;;;;;;11.15;46.30;98601.13;1713560;83;21048;-70
2021/12/15 11:15:22;;;;;;;14.15;8.83;;;;;;;11.43;52.11;98599.18;1706662;84;20982;-70
2021/12/15 11:18:01;;;;;;;15.00;9.08;;;;;;;11.64;45.54;98600.45;1712407;83;21057;-71
2021/12/15 11:20:42;;;;;;;14.10;8.65;;;;;;;12.07;46.68;98593.66;1746306;81;21027;-71
2021/12/15 11:23:28;;;;;;;14.53;8.40;;;;;;;11.86;46.83;98597.27;1707320;84;21029;-72
2021/12/15 11:25:59;;;;;;;13.25;8.30;;;;;;;12.14;43.76;98600.58;1752048;81;21462;-71
2021/12/15 11:28:43;;;;;;;14.07;8.25;;;;;;;12.41;45.61;98599.41;1741738;82;20997;-72
2021/12/15 11:31:19;;;;;;;13.40;8.85;;;;;;;12.96;42.30;98593.91;1751478;81;21040;-69
2021/12/15 11:33:54;;;;;;;14.73;9.65;;;;;;;13.10;43.32;98606.34;1709634;82;20971;-72
2021/12/15 11:36:31;;;;;;;13.93;8.55;;;;;;;13.02;43.75;98597.70;1707152;83;21037;-72
2021/12/15 11:39:16;;;;;;;14.60;9.08;;;;;;;13.10;44.10;98597.02;1710560;83;20997;-72
2021/12/15 11:41:47;;;;;;;14.00;8.93;;;;;;;13.24;42.95;98596.59;1708887;84;21025;-72
2021/12/15 11:44:18;;;;;;;14.73;8.75;;;;;;;12.89;43.79;98587.89;1676688;85;21037;-73
2021/12/15 11:47:00;;;;;;;14.58;9.03;;;;;;;12.77;41.52;98595.31;1695512;84;20984;-69
2021/12/15 11:49:32;;;;;;;15.45;8.85;;;;;;;13.00;39.37;98596.89;1690313;84;21013;-72
2021/12/15 11:52:08;;;;;;;13.15;7.70;;;;;;;12.66;41.81;98598.72;1678650;84;21492;-71
2021/12/15 11:54:44;;;;;;;12.63;7.90;;;;;;;12.72;40.47;98594.58;1689788;84;20951;-71
2021/12/15 11:57:29;;;;;;;13.90;8.60;;;;;;;12.78;42.53;98604.16;1712903;83;21066;-71
2021/12/15 12:00:07;;;;;;;17.20;9.73;;;;;;;11.96;42.39;98613.37;1708610;84;21018;-70
2021/12/15 12:02:40;;;;;;;17.57;10.65;;;;;;;11.91;41.46;98617.08;1703274;84;21054;-70
2021/12/15 12:05:26;;;;;;;16.62;10.00;;;;;;;12.41;43.15;98615.36;1682214;84;21006;-71
2021/12/15 12:07:59;;;;;;;20.23;11.85;;;;;;;12.66;43.59;98615.56;1689006;85;21123;-71
2021/12/15 12:10:45;;;;;;;16.00;10.03;;;;;;;12.68;42.17;98611.53;1689771;85;21001;-71
2021/12/15 12:13:23;;;;;;;18.77;10.75;;;;;;;12.43;41.67;98616.65;1715802;81;21017;-70
2021/12/15 12:15:48;;;;;;;19.07;10.40;;;;;;;12.32;42.74;98615.60;1745028;81;21048;-70
2021/12/15 12:18:20;;;;;;;20.27;11.48;;;;;;;12.18;43.10;98619.96;1734330;82;21455;-69
2021/12/15 12:20:54;;;;;;;19.05;11.97;;;;;;;11.29;42.10;98607.47;1721518;82;21037;-70
2021/12/15 12:23:28;;;;;;;23.22;13.03;;;;;;;11.03;43.88;98618.17;1721126;82;21064;-70
2021/12/15 12:26:02;;;;;;;;;;;;;;;10.42;44.61;98617.58;1685274;85;21085;-71
2021/12/15 12:28:33;;;;;;;23.30;14.07;;;;;;;9.88;46.96;98610.14;1681723;85;20143;-71
2021/12/15 12:31:08;;;;;;;20.72;12.43;;;;;;;9.23;47.61;98617.77;1705798;84;21042;-71
2021/12/15 12:33:35;;;;;;;20.15;11.73;;;;;;;8.24;49.78;98623.73;1707429;84;21009;-71
2021/12/15 12:36:19;;;;;;;24.37;13.45;;;;;;;7.56;51.77;98623.41;1715056;84;21131;-71
2021/12/15 12:38:54;;;;;;;21.35;12.20;;;;;;;6.97;53.28;98623.77;1715247;84;21474;-70
2021/12/15 12:41:26;;;;;;;22.98;12.45;;;;;;;6.27;55.51;98625.34;1712661;83;21022;-70
2021/12/15 12:43:58;;;;;;;23.98;13.05;;;;;;;5.75;56.52;98625.35;1713717;82;21061;-71